Time;durP1;ratioP1;P1;durP2;ratioP2;P2;SDS_P1;SDS_P2;PMS_P1;PMS_P2;Temp;Humidity;BMP_temperature;BMP_pressure;BME280_temperature;BME280_humidity;BME280_pressure;Samples;Min_cycle;Max_cycle;Signal;HPM_P1;HPM_P2
2022/03/14 00:00:28;;;;;;;5.00;3.70;;;10.90;39.60;;;;;;4946684;28;20891;-77
2022/03/14 00:02:54;;;;;;;5.33;4.00;;;10.90;40.10;;;;;;4931816;28;20798;-78
2022/03/14 00:05:20;;;;;;;6.75;4.00;;;10.80;40.40;;;;;;4947353;29;20391;-77
2022/03/14 00:07:46;;;;;;;4.65;3.72;;;10.70;40.50;;;;;;4946316;28;20611;-79
2022/03/14 00:10:16;;;;;;;6.00;3.85;;;10.90;41.40;;;;;;4939505;28;20426;-80
2022/03/14 00:12:44;;;;;;;6.82;4.45;;;10.80;41.00;;;;;;4944837;28;20403;-80
2022/03/14 00:15:11;;;;;;;7.30;4.30;;;10.70;41.70;;;;;;4961527;28;20396;-81
2022/03/14 00:17:39;;;;;;;4.88;4.10;;;11.00;40.90;;;;;;4927945;28;20411;-79
2022/03/14 00:20:07;;;;;;;4.72;4.03;;;10.90;40.80;;;;;;4954456;28;20665;-79
2022/03/14 00:22:34;;;;;;;6.60;4.20;;;11.00;40.90;;;;;;4956535;28;20800;-81
2022/03/14 00:24:59;;;;;;;7.13;4.40;;;10.90;41.00;;;;;;4952886;28;20396;-79
2022/03/14 00:27:25;;;;;;;5.20;4.03;;;10.90;41.30;;;;;;4962289;28;20402;-78
2022/03/14 00:29:50;;;;;;;6.63;4.60;;;10.90;41.30;;;;;;4937973;28;20401;-79
2022/03/14 00:32:16;;;;;;;5.10;4.33;;;10.90;41.90;;;;;;4934567;28;20410;-80
2022/03/14 00:34:42;;;;;;;5.78;4.07;;;10.90;42.10;;;;;;4927065;28;20411;-79
2022/03/14 00:37:07;;;;;;;6.05;3.97;;;10.90;41.60;;;;;;4953548;28;20461;-80
2022/03/14 00:39:33;;;;;;;4.13;3.50;;;11.20;40.20;;;;;;4937167;28;20845;-79
2022/03/14 00:41:58;;;;;;;5.05;3.80;;;11.30;39.10;;;;;;4944351;28;20765;-81
2022/03/14 00:44:24;;;;;;;4.53;3.85;;;11.30;38.90;;;;;;4956742;28;20414;-79
2022/03/14 00:46:50;;;;;;;6.10;4.40;;;11.20;38.90;;;;;;4951285;28;20426;-79
2022/03/14 00:49:15;;;;;;;6.85;4.25;;;11.10;39.60;;;;;;4946325;28;20782;-77
2022/03/14 00:51:41;;;;;;;5.43;4.10;;;11.00;40.30;;;;;;4954182;29;20441;-78
2022/03/14 00:54:07;;;;;;;4.30;3.88;;;10.90;40.30;;;;;;4968011;28;20436;-78
2022/03/14 00:56:33;;;;;;;10.88;5.00;;;10.90;41.20;;;;;;4940616;28;20475;-77
2022/03/14 00:59:01;;;;;;;5.63;4.35;;;11.00;41.00;;;;;;4985761;28;20431;-76
2022/03/14 01:01:27;;;;;;;5.45;4.20;;;10.90;41.30;;;;;;4942826;28;20436;-80
2022/03/14 01:03:53;;;;;;;6.13;4.55;;;10.90;41.50;;;;;;4943228;28;20404;-79
2022/03/14 01:06:19;;;;;;;7.05;4.80;;;10.90;41.80;;;;;;4948513;28;20487;-80
2022/03/14 01:08:45;;;;;;;5.57;3.92;;;10.90;41.90;;;;;;4951598;28;20932;-81
2022/03/14 01:11:11;;;;;;;5.03;4.22;;;11.00;41.00;;;;;;4943370;28;20408;-80
2022/03/14 01:13:36;;;;;;;5.93;4.47;;;11.00;40.80;;;;;;4958909;28;20417;-79
2022/03/14 01:16:02;;;;;;;5.15;4.20;;;11.00;41.00;;;;;;4956989;29;20496;-81
2022/03/14 01:18:28;;;;;;;5.63;4.25;;;11.00;41.30;;;;;;4948462;28;20454;-80
2022/03/14 01:20:53;;;;;;;6.60;4.63;;;11.00;41.00;;;;;;4942243;29;20398;-80
2022/03/14 01:23:19;;;;;;;5.00;4.50;;;11.00;41.50;;;;;;4956521;29;20402;-79
2022/03/14 01:25:45;;;;;;;6.55;4.43;;;11.00;41.80;;;;;;4954462;29;20400;-78
2022/03/14 01:28:12;;;;;;;5.82;4.20;;;11.00;41.70;;;;;;4951854;28;20475;-77
2022/03/14 01:30:39;;;;;;;4.55;4.15;;;11.10;42.30;;;;;;4988196;28;20418;-77
2022/03/14 01:33:04;;;;;;;4.73;3.90;;;11.40;41.40;;;;;;4967658;28;20435;-78
2022/03/14 01:35:30;;;;;;;5.55;4.68;;;11.40;40.80;;;;;;4941967;28;20402;-76
2022/03/14 01:37:57;;;;;;;4.68;4.07;;;11.40;40.60;;;;;;4977449;28;20398;-79
2022/03/14 01:40:24;;;;;;;6.00;3.90;;;11.50;40.00;;;;;;4949941;28;20399;-80
2022/03/14 01:42:50;;;;;;;4.25;3.70;;;11.40;40.10;;;;;;4957158;28;20400;-79
2022/03/14 01:45:17;;;;;;;6.00;4.68;;;11.40;40.80;;;;;;4967930;28;20452;-77
2022/03/14 01:47:44;;;;;;;5.93;4.50;;;11.30;41.50;;;;;;4934330;28;20478;-79
2022/03/14 01:50:10;;;;;;;4.30;3.70;;;11.40;41.90;;;;;;4972925;28;20408;-77
2022/03/14 01:52:36;;;;;;;5.27;4.20;;;11.40;41.30;;;;;;4957272;28;20751;-78
2022/03/14 01:55:03;;;;;;;4.85;4.20;;;11.40;42.30;;;;;;4948114;28;20817;-77
2022/03/14 01:57:29;;;;;;;6.68;4.22;;;11.30;42.30;;;;;;4953983;28;20475;-79
2022/03/14 01:59:56;;;;;;;5.75;4.32;;;11.30;42.90;;;;;;4995409;28;20410;-77
2022/03/14 02:02:22;;;;;;;6.20;4.22;;;11.30;42.20;;;;;;4950854;28;20397;-77
2022/03/14 02:04:48;;;;;;;7.95;4.45;;;11.30;42.80;;;;;;4963581;28;20417;-78
2022/03/14 02:07:13;;;;;;;5.50;4.03;;;11.40;42.70;;;;;;4964646;29;20409;-76
2022/03/14 02:09:39;;;;;;;4.50;3.90;;;11.40;42.60;;;;;;4975822;28;20414;-76
2022/03/14 02:12:09;;;;;;;4.85;4.20;;;11.50;42.40;;;;;;4934492;28;20437;-78
2022/03/14 02:14:39;;;;;;;5.75;4.10;;;11.50;43.20;;;;;;4932010;28;20924;-78
2022/03/14 02:17:13;;;;;;;5.28;4.45;;;11.40;45.20;;;;;;4941297;28;20400;-79
2022/03/14 02:19:40;;;;;;;5.50;4.43;;;11.40;46.40;;;;;;4947576;28;20434;-76
2022/03/14 02:22:14;;;;;;;5.20;4.35;;;11.30;47.80;;;;;;4939881;28;20469;-78
2022/03/14 02:24:45;;;;;;;6.85;4.80;;;11.20;49.90;;;;;;4953673;28;20399;-75
2022/03/14 02:27:11;;;;;;;5.43;4.30;;;11.10;52.20;;;;;;4942042;28;20427;-76
2022/03/14 02:29:39;;;;;;;5.13;4.63;;;11.20;52.70;;;;;;4978896;28;20408;-79
2022/03/14 02:32:05;;;;;;;5.32;4.50;;;11.10;54.10;;;;;;4927269;28;20479;-77
2022/03/14 02:34:31;;;;;;;6.30;4.70;;;10.90;57.00;;;;;;4940260;28;20411;-78
2022/03/14 02:36:57;;;;;;;8.40;4.60;;;10.90;58.30;;;;;;4942382;28;20899;-79
2022/03/14 02:39:22;;;;;;;5.70;4.90;;;10.80;59.80;;;;;;4954394;28;20418;-78
2022/03/14 02:41:48;;;;;;;5.83;4.70;;;10.70;62.80;;;;;;4928333;28;20844;-79
2022/03/14 02:44:13;;;;;;;7.23;5.70;;;10.70;63.50;;;;;;4944552;28;20415;-80
2022/03/14 02:46:40;;;;;;;6.70;5.30;;;10.60;65.30;;;;;;4948379;28;20986;-78
2022/03/14 02:49:10;;;;;;;6.47;5.00;;;10.60;69.20;;;;;;4938848;28;20518;-78
2022/03/14 02:51:41;;;;;;;7.38;5.40;;;10.60;70.30;;;;;;4952958;28;20411;-80
2022/03/14 02:54:08;;;;;;;6.70;5.55;;;10.50;70.10;;;;;;4929382;28;20400;-77
2022/03/14 02:56:34;;;;;;;10.50;6.50;;;10.50;72.00;;;;;;4963935;28;21031;-78
2022/03/14 02:59:01;;;;;;;10.65;6.78;;;10.40;75.60;;;;;;4964700;28;20426;-77
2022/03/14 03:01:26;;;;;;;9.03;6.80;;;10.40;79.70;;;;;;4959088;29;20484;-78
2022/03/14 03:03:52;;;;;;;10.53;7.23;;;10.40;81.70;;;;;;4943300;28;20517;-78
2022/03/14 03:06:22;;;;;;;12.87;7.43;;;10.40;83.10;;;;;;4946364;28;20407;-78
2022/03/14 03:08:52;;;;;;;12.10;7.20;;;10.40;81.90;;;;;;4942372;28;20432;-79
2022/03/14 03:11:19;;;;;;;11.88;7.10;;;10.40;82.60;;;;;;4929595;28;20415;-79
2022/03/14 03:13:46;;;;;;;11.40;7.68;;;10.20;87.20;;;;;;4945462;28;20743;-80
2022/03/14 03:16:14;;;;;;;11.90;8.20;;;10.30;87.50;;;;;;4970036;28;20408;-77
2022/03/14 03:18:39;;;;;;;12.43;8.02;;;10.20;88.50;;;;;;4939993;29;20941;-77
2022/03/14 03:21:05;;;;;;;15.15;8.70;;;10.20;89.50;;;;;;4961777;29;20417;-77
2022/03/14 03:23:33;;;;;;;10.10;8.20;;;10.20;92.10;;;;;;4939586;29;20412;-77
2022/03/14 03:25:58;;;;;;;12.55;8.82;;;10.20;93.10;;;;;;4949717;28;20706;-77
2022/03/14 03:28:24;;;;;;;14.48;9.25;;;10.20;93.40;;;;;;4945660;28;20683;-76
2022/03/14 03:30:50;;;;;;;14.27;9.87;;;10.10;95.90;;;;;;4962950;28;20466;-77
2022/03/14 03:33:16;;;;;;;14.33;9.70;;;10.10;97.40;;;;;;4950927;28;20475;-78
2022/03/14 03:35:42;;;;;;;12.80;9.50;;;10.10;97.90;;;;;;4946578;28;20487;-76
2022/03/14 03:38:07;;;;;;;12.43;9.38;;;10.10;97.60;;;;;;4926606;28;20423;-78
2022/03/14 03:40:33;;;;;;;13.45;9.30;;;10.00;98.40;;;;;;4950053;28;20918;-79
2022/03/14 03:42:59;;;;;;;14.38;9.07;;;10.10;99.90;;;;;;4922598;28;20408;-79
2022/03/14 03:45:24;;;;;;;14.45;9.05;;;10.20;97.50;;;;;;4983371;28;21887;-78
2022/03/14 03:47:50;;;;;;;15.50;9.43;;;10.10;98.20;;;;;;4923822;28;20404;-79
2022/03/14 03:50:16;;;;;;;14.48;9.57;;;10.00;99.70;;;;;;4952957;28;20422;-78
2022/03/14 03:52:42;;;;;;;18.83;10.00;;;10.00;99.90;;;;;;4954629;28;20521;-77
2022/03/14 03:55:09;;;;;;;17.20;10.33;;;10.00;99.90;;;;;;4967689;28;20413;-79
2022/03/14 03:57:35;;;;;;;15.10;10.00;;;10.10;99.90;;;;;;4951788;29;20396;-79
2022/03/14 04:00:05;;;;;;;14.77;10.00;;;10.10;99.90;;;;;;4960067;28;20424;-79
2022/03/14 04:02:36;;;;;;;15.73;10.27;;;10.10;99.90;;;;;;4939748;29;20443;-79
2022/03/14 04:05:02;;;;;;;15.77;11.15;;;10.00;99.90;;;;;;4945080;28;20411;-76
2022/03/14 04:07:31;;;;;;;16.13;11.40;;;10.00;99.90;;;;;;4946746;28;20408;-77
2022/03/14 04:09:57;;;;;;;18.87;12.57;;;10.00;99.90;;;;;;4946010;28;20411;-79
2022/03/14 04:12:25;;;;;;;18.83;12.57;;;10.20;99.90;;;;;;4946694;28;20412;-78
2022/03/14 04:14:51;;;;;;;17.92;12.25;;;10.20;99.90;;;;;;4950380;28;20411;-78
2022/03/14 04:17:18;;;;;;;20.63;12.82;;;10.20;99.90;;;;;;4943984;28;20388;-77
2022/03/14 04:19:44;;;;;;;19.73;12.75;;;10.30;98.60;;;;;;4948863;28;20429;-80
2022/03/14 04:22:10;;;;;;;17.98;13.50;;;10.20;98.20;;;;;;4973850;28;20396;-77
2022/03/14 04:24:37;;;;;;;20.55;13.98;;;10.10;99.70;;;;;;4950765;28;20459;-77
2022/03/14 04:27:03;;;;;;;21.47;14.27;;;10.10;99.90;;;;;;4946280;28;20478;-78
2022/03/14 04:29:30;;;;;;;19.88;13.20;;;10.10;99.90;;;;;;4962424;28;20411;-79
2022/03/14 04:31:56;;;;;;;19.10;13.85;;;10.10;99.90;;;;;;4959298;28;20469;-78
2022/03/14 04:34:21;;;;;;;20.47;14.50;;;10.10;99.90;;;;;;4957624;28;20413;-79
2022/03/14 04:36:50;;;;;;;20.67;13.50;;;10.10;99.90;;;;;;4943422;28;20405;-78
2022/03/14 04:39:20;;;;;;;16.95;12.35;;;10.10;99.90;;;;;;4961582;28;20450;-77
2022/03/14 04:41:46;;;;;;;19.57;14.30;;;10.10;99.90;;;;;;4968455;28;20403;-78
2022/03/14 04:44:11;;;;;;;18.90;12.48;;;9.90;99.90;;;;;;4967600;28;20461;-77
2022/03/14 04:46:37;;;;;;;17.83;12.80;;;10.10;99.90;;;;;;4984234;28;20617;-79
2022/03/14 04:49:04;;;;;;;21.48;12.80;;;10.10;99.90;;;;;;4946567;28;20430;-79
2022/03/14 04:51:33;;;;;;;20.43;13.50;;;10.10;99.90;;;;;;4943500;29;20462;-80
2022/03/14 04:53:59;;;;;;;20.58;13.80;;;10.10;99.90;;;;;;4938371;28;20758;-80
2022/03/14 04:56:25;;;;;;;17.75;12.65;;;10.00;99.90;;;;;;4972648;28;20580;-78
2022/03/14 04:58:51;;;;;;;18.50;13.03;;;10.00;99.90;;;;;;4955216;28;20505;-77
2022/03/14 05:01:20;;;;;;;20.40;13.93;;;9.90;99.90;;;;;;4949119;28;20403;-78
2022/03/14 05:03:46;;;;;;;20.80;13.30;;;9.80;99.90;;;;;;4937036;28;20443;-79
2022/03/14 05:06:11;;;;;;;17.80;12.40;;;9.80;99.90;;;;;;4970685;28;20403;-79
2022/03/14 05:08:37;;;;;;;16.23;11.87;;;9.90;99.90;;;;;;4932938;28;20406;-78
2022/03/14 05:11:04;;;;;;;18.93;12.23;;;9.90;99.90;;;;;;4939343;28;20403;-79
2022/03/14 05:13:30;;;;;;;17.25;10.82;;;10.00;98.80;;;;;;4944952;28;20411;-77
2022/03/14 05:15:55;;;;;;;17.10;10.85;;;10.00;99.00;;;;;;4966311;28;20403;-80
2022/03/14 05:18:21;;;;;;;16.08;11.00;;;10.00;97.20;;;;;;4937822;28;20432;-78
2022/03/14 05:20:46;;;;;;;14.45;10.35;;;9.90;97.00;;;;;;4937604;28;20507;-78
2022/03/14 05:23:12;;;;;;;12.20;9.00;;;10.00;95.30;;;;;;4942932;28;20946;-77
2022/03/14 05:25:38;;;;;;;12.63;8.27;;;10.00;91.50;;;;;;4972497;28;20410;-79
2022/03/14 05:28:03;;;;;;;14.90;8.57;;;10.00;90.40;;;;;;4937162;29;20424;-78
2022/03/14 05:30:29;;;;;;;12.57;7.97;;;9.90;90.00;;;;;;4954330;28;20423;-79
2022/03/14 05:32:55;;;;;;;7.88;6.82;;;10.00;88.10;;;;;;4951012;29;20411;-81
2022/03/14 05:35:21;;;;;;;8.82;6.65;;;10.00;85.90;;;;;;4949789;28;20459;-79
2022/03/14 05:37:47;;;;;;;10.23;7.05;;;10.00;85.40;;;;;;4980454;28;20420;-79
2022/03/14 05:40:15;;;;;;;9.15;7.15;;;10.00;83.90;;;;;;4939450;28;20551;-78
2022/03/14 05:42:42;;;;;;;9.45;6.50;;;10.10;83.80;;;;;;4938652;28;20404;-77
2022/03/14 05:45:08;;;;;;;8.15;6.70;;;10.00;80.40;;;;;;4960438;28;20387;-79
2022/03/14 05:47:35;;;;;;;9.07;6.72;;;10.10;82.20;;;;;;4948987;28;20402;-78
2022/03/14 05:50:01;;;;;;;9.75;6.57;;;10.10;80.30;;;;;;4938713;28;20459;-79
2022/03/14 05:52:27;;;;;;;12.27;7.00;;;10.00;80.20;;;;;;4948130;28;20492;-78
2022/03/14 05:54:55;;;;;;;8.52;6.30;;;10.00;81.10;;;;;;4962733;29;20406;-78
2022/03/14 05:57:21;;;;;;;8.55;6.35;;;10.00;82.50;;;;;;4954130;28;20906;-79
2022/03/14 05:59:48;;;;;;;7.32;5.97;;;10.00;80.60;;;;;;4922967;28;20510;-79
2022/03/14 06:02:22;;;;;;;8.20;6.20;;;9.90;81.10;;;;;;4959700;28;20489;-78
2022/03/14 06:04:48;;;;;;;10.77;6.28;;;10.00;79.30;;;;;;4944695;28;20437;-78
2022/03/14 06:07:14;;;;;;;7.20;6.38;;;9.90;80.40;;;;;;4953573;28;20756;-77
2022/03/14 06:09:40;;;;;;;7.33;5.60;;;9.90;82.10;;;;;;4951523;28;20460;-77
2022/03/14 06:12:06;;;;;;;10.10;5.90;;;10.00;79.60;;;;;;4974826;28;20422;-78
2022/03/14 06:14:34;;;;;;;6.80;5.65;;;10.00;79.00;;;;;;4941297;28;20472;-79
2022/03/14 06:16:59;;;;;;;7.00;5.70;;;10.00;77.20;;;;;;4980408;28;20426;-80
2022/03/14 06:19:25;;;;;;;8.98;6.10;;;10.00;75.70;;;;;;4971877;28;20424;-78
2022/03/14 06:21:51;;;;;;;7.22;5.80;;;10.00;77.10;;;;;;4956582;28;20416;-78
2022/03/14 06:24:17;;;;;;;7.25;5.68;;;10.00;76.30;;;;;;4941198;28;20403;-77
2022/03/14 06:26:43;;;;;;;12.45;5.30;;;10.10;74.80;;;;;;4984478;28;20401;-78
2022/03/14 06:29:09;;;;;;;9.77;5.63;;;10.00;73.90;;;;;;4985298;28;20748;-77
2022/03/14 06:31:35;;;;;;;5.67;5.07;;;10.10;74.80;;;;;;4954594;28;20401;-77
2022/03/14 06:34:01;;;;;;;10.23;6.00;;;10.10;74.30;;;;;;4986973;28;20403;-77
2022/03/14 06:36:28;;;;;;;7.18;5.18;;;10.10;74.50;;;;;;4942106;28;20499;-78
2022/03/14 06:38:56;;;;;;;8.70;5.45;;;10.00;74.20;;;;;;4954983;29;20490;-78
2022/03/14 06:41:23;;;;;;;6.60;5.38;;;10.10;72.90;;;;;;4983465;28;20459;-77
2022/03/14 06:43:49;;;;;;;6.75;5.30;;;10.10;72.50;;;;;;4943882;29;20398;-77
2022/03/14 06:46:14;;;;;;;8.43;5.60;;;10.10;72.50;;;;;;4969127;28;20404;-78
2022/03/14 06:48:41;;;;;;;7.40;5.25;;;10.10;71.70;;;;;;4959015;28;20497;-77
2022/03/14 06:51:07;;;;;;;12.40;5.38;;;10.20;70.30;;;;;;4979141;28;20395;-78
2022/03/14 06:53:32;;;;;;;9.98;5.60;;;10.20;69.20;;;;;;4978568;28;20490;-77
2022/03/14 06:55:58;;;;;;;7.85;5.95;;;10.30;69.10;;;;;;4976548;28;20429;-79
2022/03/14 06:58:24;;;;;;;9.35;6.20;;;10.30;70.20;;;;;;4962955;28;20422;-78
2022/03/14 07:00:50;;;;;;;7.10;6.07;;;10.30;67.90;;;;;;4949696;28;20412;-79
2022/03/14 07:03:16;;;;;;;6.70;5.67;;;10.40;67.40;;;;;;4975994;28;20396;-77
2022/03/14 07:05:42;;;;;;;11.68;6.10;;;10.50;66.70;;;;;;4947189;28;20415;-78
2022/03/14 07:08:09;;;;;;;9.43;6.57;;;10.60;64.00;;;;;;4938117;28;20422;-77
2022/03/14 07:10:34;;;;;;;10.20;5.78;;;10.70;61.20;;;;;;4965042;28;20408;-77
2022/03/14 07:13:00;;;;;;;9.50;6.10;;;10.80;59.50;;;;;;4951534;28;20492;-79
2022/03/14 07:15:26;;;;;;;8.47;6.20;;;10.70;60.80;;;;;;4978347;28;20432;-78
2022/03/14 07:17:51;;;;;;;13.20;6.53;;;10.70;62.00;;;;;;4965967;28;20942;-78
2022/03/14 07:20:19;;;;;;;9.63;6.73;;;10.80;58.10;;;;;;4940848;28;20439;-80
2022/03/14 07:22:56;;;;;;;13.83;7.77;;;10.80;59.60;;;;;;4949119;28;20471;-78
2022/03/14 07:25:25;;;;;;;17.88;7.68;;;10.90;58.60;;;;;;4943082;28;20493;-77
2022/03/14 07:27:58;;;;;;;10.18;6.97;;;10.90;58.10;;;;;;4961917;28;20429;-78
2022/03/14 07:30:24;;;;;;;11.82;7.78;;;11.00;57.40;;;;;;4945174;28;20419;-77
2022/03/14 07:32:49;;;;;;;14.33;7.20;;;11.00;57.40;;;;;;4945961;28;20546;-78
2022/03/14 07:35:15;;;;;;;12.63;7.20;;;11.00;57.30;;;;;;4964290;28;20445;-78
2022/03/14 07:37:41;;;;;;;11.63;6.95;;;11.00;57.20;;;;;;4938155;28;20424;-79
2022/03/14 07:40:09;;;;;;;13.75;7.25;;;11.10;57.60;;;;;;4939342;28;20419;-77
2022/03/14 07:42:41;;;;;;;10.15;6.50;;;11.20;54.50;;;;;;4951575;28;20409;-78
2022/03/14 07:45:08;;;;;;;12.80;7.03;;;11.30;54.00;;;;;;4957154;28;20412;-77
2022/03/14 07:47:34;;;;;;;11.95;6.70;;;11.30;52.90;;;;;;4942412;28;20408;-76
2022/03/14 07:49:59;;;;;;;11.90;6.75;;;11.40;51.60;;;;;;4924636;28;20418;-77
2022/03/14 07:52:25;;;;;;;15.38;6.13;;;11.40;52.20;;;;;;4939820;28;20447;-77
2022/03/14 07:54:51;;;;;;;16.02;6.55;;;11.40;50.40;;;;;;4939773;28;20470;-76
2022/03/14 07:57:16;;;;;;;10.47;6.57;;;11.30;51.20;;;;;;4920048;28;20440;-75
2022/03/14 07:59:46;;;;;;;13.90;6.60;;;11.20;54.50;;;;;;4937154;28;20423;-76
2022/03/14 08:02:12;;;;;;;10.77;6.05;;;11.10;53.80;;;;;;4977793;28;20887;-77
2022/03/14 08:04:39;;;;;;;10.07;6.57;;;11.30;50.40;;;;;;4950855;28;20416;-76
2022/03/14 08:07:05;;;;;;;13.57;6.60;;;11.10;55.00;;;;;;4935852;28;20446;-77
2022/03/14 08:09:32;;;;;;;11.57;6.20;;;11.20;53.50;;;;;;4937207;28;20420;-77
2022/03/14 08:12:04;;;;;;;14.90;6.90;;;11.30;51.20;;;;;;4926955;28;20495;-75
2022/03/14 08:14:29;;;;;;;16.45;6.82;;;11.20;51.90;;;;;;4921290;28;20418;-76
2022/03/14 08:16:55;;;;;;;13.82;7.22;;;11.30;52.40;;;;;;4924605;28;20416;-75
2022/03/14 08:19:20;;;;;;;17.50;8.00;;;11.30;49.60;;;;;;4951145;28;20491;-76
2022/03/14 08:21:47;;;;;;;20.52;7.97;;;11.40;52.20;;;;;;4935787;29;20404;-75
2022/03/14 08:24:13;;;;;;;19.30;7.07;;;11.40;50.40;;;;;;4925641;28;20492;-76
2022/03/14 08:26:39;;;;;;;15.48;7.00;;;11.60;47.40;;;;;;4933838;28;20518;-77
2022/03/14 08:29:05;;;;;;;13.27;6.70;;;11.60;48.50;;;;;;4935794;29;20423;-76
2022/03/14 08:31:32;;;;;;;19.15;8.07;;;11.50;47.10;;;;;;4930277;28;20420;-76
2022/03/14 08:33:58;;;;;;;15.00;6.50;;;11.60;47.30;;;;;;4949271;28;20440;-76
2022/03/14 08:36:24;;;;;;;14.15;6.72;;;11.50;49.50;;;;;;4960544;28;20410;-77
2022/03/14 08:38:50;;;;;;;11.73;6.22;;;11.60;47.20;;;;;;4944529;28;20415;-75
2022/03/14 08:41:16;;;;;;;15.20;6.03;;;11.70;47.50;;;;;;4945951;28;20419;-77
2022/03/14 08:43:46;;;;;;;16.30;6.10;;;11.60;46.60;;;;;;4935482;28;20399;-77
2022/03/14 08:46:13;;;;;;;10.53;5.50;;;11.70;46.00;;;;;;4934575;28;20546;-77
2022/03/14 08:48:38;;;;;;;16.13;5.95;;;11.80;44.80;;;;;;4931126;29;20415;-77
2022/03/14 08:51:04;;;;;;;12.23;5.50;;;11.90;43.60;;;;;;4924507;28;20470;-78
2022/03/14 08:53:30;;;;;;;15.67;6.33;;;11.90;45.60;;;;;;4944932;28;20928;-76
2022/03/14 08:55:56;;;;;;;11.98;6.07;;;11.90;45.70;;;;;;4937197;28;20427;-75
2022/03/14 08:58:22;;;;;;;8.88;5.47;;;12.00;44.70;;;;;;4930255;29;20920;-77
2022/03/14 09:00:48;;;;;;;10.95;5.97;;;12.30;42.00;;;;;;4943326;28;20418;-78
2022/03/14 09:03:14;;;;;;;12.40;6.40;;;12.50;40.90;;;;;;4933895;28;20562;-76
2022/03/14 09:05:40;;;;;;;13.73;6.30;;;12.50;39.90;;;;;;4949448;28;20479;-77
2022/03/14 09:08:06;;;;;;;10.90;5.20;;;12.50;39.90;;;;;;4943561;28;20465;-75
2022/03/14 09:10:35;;;;;;;13.50;5.33;;;12.70;39.00;;;;;;4941404;28;22212;-76
2022/03/14 09:13:01;;;;;;;12.98;5.90;;;12.70;38.20;;;;;;4934189;28;20462;-75
2022/03/14 09:15:26;;;;;;;9.05;4.90;;;12.80;38.10;;;;;;4968864;28;20423;-76
2022/03/14 09:17:56;;;;;;;13.68;5.80;;;12.80;37.50;;;;;;4975249;28;20430;-75
2022/03/14 09:20:24;;;;;;;16.02;6.85;;;12.70;39.50;;;;;;4965255;28;20489;-75
2022/03/14 09:22:50;;;;;;;10.00;5.22;;;12.60;40.60;;;;;;4953108;28;20404;-75
2022/03/14 09:25:16;;;;;;;11.63;5.30;;;12.60;40.80;;;;;;4941261;28;20407;-77
2022/03/14 09:27:43;;;;;;;9.40;4.95;;;12.60;38.00;;;;;;4934188;28;20410;-77
2022/03/14 09:30:11;;;;;;;8.30;5.40;;;12.60;39.10;;;;;;4936899;28;20409;-76
2022/03/14 09:32:36;;;;;;;10.33;5.67;;;12.70;38.40;;;;;;4962060;28;20426;-76
2022/03/14 09:35:03;;;;;;;9.40;5.27;;;12.70;37.80;;;;;;4932196;28;20412;-75
2022/03/14 09:37:30;;;;;;;10.20;5.38;;;12.60;38.60;;;;;;4933138;28;22101;-76
2022/03/14 09:39:56;;;;;;;13.25;5.90;;;12.50;39.30;;;;;;4932216;28;20564;-76
2022/03/14 09:42:23;;;;;;;10.73;6.15;;;12.40;38.60;;;;;;4959680;28;20404;-76
2022/03/14 09:44:53;;;;;;;12.52;6.50;;;12.30;39.20;;;;;;4927940;28;20404;-76
2022/03/14 09:47:21;;;;;;;12.93;5.70;;;12.20;40.30;;;;;;4936950;28;20749;-77
2022/03/14 09:49:47;;;;;;;9.43;5.47;;;12.30;39.90;;;;;;4935365;28;20500;-75
2022/03/14 09:52:15;;;;;;;15.30;5.90;;;12.40;39.60;;;;;;4941553;28;20431;-75
2022/03/14 09:54:40;;;;;;;13.02;6.60;;;12.30;40.10;;;;;;4944367;28;20773;-76
2022/03/14 09:57:06;;;;;;;12.37;6.00;;;12.30;39.50;;;;;;4932456;28;20428;-77
2022/03/14 09:59:33;;;;;;;15.23;6.50;;;12.50;38.60;;;;;;4930843;28;20439;-76
2022/03/14 10:02:00;;;;;;;13.02;6.00;;;12.60;38.10;;;;;;4930612;28;20410;-77
2022/03/14 10:04:25;;;;;;;13.40;6.38;;;12.80;36.50;;;;;;4931264;28;20407;-76
2022/03/14 10:06:51;;;;;;;13.88;6.00;;;12.90;36.20;;;;;;4929200;28;20770;-76
2022/03/14 10:09:17;;;;;;;13.47;6.60;;;13.10;35.60;;;;;;4929029;28;20442;-77
2022/03/14 10:11:43;;;;;;;9.30;6.20;;;13.20;34.30;;;;;;4919307;28;20432;-76
2022/03/14 10:14:11;;;;;;;12.85;6.60;;;13.30;32.10;;;;;;4936345;28;20404;-76
2022/03/14 10:16:37;;;;;;;13.10;6.85;;;13.20;31.20;;;;;;4932923;28;20399;-75
2022/03/14 10:19:07;;;;;;;12.10;6.57;;;13.00;33.70;;;;;;4960765;28;20497;-77
2022/03/14 10:21:35;;;;;;;13.25;6.63;;;13.10;32.30;;;;;;4935275;28;20500;-75
2022/03/14 10:24:04;;;;;;;11.13;6.90;;;13.20;32.60;;;;;;4942315;28;20408;-75
2022/03/14 10:26:33;;;;;;;11.63;7.10;;;13.20;33.10;;;;;;4947368;28;20451;-75
2022/03/14 10:29:00;;;;;;;14.30;7.80;;;13.40;31.60;;;;;;4950610;28;20411;-75
2022/03/14 10:31:32;;;;;;;17.25;7.93;;;13.60;32.30;;;;;;4935269;28;20869;-75
2022/03/14 10:34:14;;;;;;;15.07;7.28;;;13.80;30.10;;;;;;4937178;28;20496;-77
2022/03/14 10:36:48;;;;;;;14.05;7.90;;;13.60;30.20;;;;;;4933381;29;20412;-77
2022/03/14 10:39:19;;;;;;;15.35;8.15;;;13.50;30.90;;;;;;4930642;28;20412;-76
2022/03/14 10:42:07;;;;;;;16.73;8.60;;;13.50;31.30;;;;;;4928974;28;20424;-76
2022/03/14 10:44:34;;;;;;;14.45;7.80;;;13.60;30.40;;;;;;4931848;28;20412;-76
2022/03/14 10:47:01;;;;;;;14.20;8.75;;;13.90;28.90;;;;;;4932733;28;20450;-78
2022/03/14 10:49:32;;;;;;;14.75;8.93;;;14.00;28.20;;;;;;4933818;28;20794;-75
2022/03/14 10:52:00;;;;;;;13.60;8.23;;;14.20;27.20;;;;;;4937391;28;20404;-77
2022/03/14 10:54:26;;;;;;;15.38;8.40;;;14.20;27.40;;;;;;4940767;28;20729;-79
2022/03/14 10:57:05;;;;;;;15.30;8.50;;;14.20;28.00;;;;;;4933758;29;20502;-78
2022/03/14 10:59:36;;;;;;;13.00;8.00;;;14.10;28.90;;;;;;4921454;28;20518;-79
2022/03/14 11:02:04;;;;;;;14.98;8.27;;;14.10;28.00;;;;;;4936485;28;20404;-77
2022/03/14 11:04:46;;;;;;;11.88;7.65;;;13.90;28.30;;;;;;4920517;28;20510;-77
2022/03/14 11:07:13;;;;;;;14.00;7.90;;;13.90;27.40;;;;;;4927741;28;20400;-77
2022/03/14 11:09:49;;;;;;;14.30;8.40;;;13.60;28.90;;;;;;4937466;28;20762;-76
2022/03/14 11:12:18;;;;;;;16.45;7.90;;;13.60;29.10;;;;;;4936095;28;20976;-77
2022/03/14 11:15:02;;;;;;;11.60;7.47;;;13.70;27.40;;;;;;4929491;28;20423;-79
2022/03/14 11:17:30;;;;;;;15.05;7.30;;;13.80;27.90;;;;;;4931542;28;20404;-76
2022/03/14 11:19:58;;;;;;;24.07;7.20;;;13.90;27.60;;;;;;4934655;28;20419;-77
2022/03/14 11:22:27;;;;;;;11.93;6.90;;;14.10;25.90;;;;;;4932372;29;20432;-78
2022/03/14 11:24:54;;;;;;;11.02;6.45;;;14.30;26.40;;;;;;4944844;28;20426;-77
2022/03/14 11:27:36;;;;;;;15.18;7.40;;;14.40;25.50;;;;;;4971857;28;20485;-76
2022/03/14 11:30:11;;;;;;;13.98;6.28;;;14.50;25.70;;;;;;4964604;28;20410;-77
2022/03/14 11:32:38;;;;;;;15.07;6.60;;;14.50;24.70;;;;;;4928330;28;20473;-78
2022/03/14 11:35:05;;;;;;;11.43;6.38;;;14.60;24.60;;;;;;4943495;28;20438;-77
2022/03/14 11:37:31;;;;;;;9.13;6.10;;;14.70;24.90;;;;;;4946386;28;20513;-79
2022/03/14 11:39:59;;;;;;;12.77;5.68;;;14.90;22.40;;;;;;4954682;28;20415;-77
2022/03/14 11:42:24;;;;;;;10.67;5.30;;;14.90;21.60;;;;;;4940988;28;20793;-76
2022/03/14 11:44:51;;;;;;;11.47;5.50;;;14.90;22.30;;;;;;4946078;29;20407;-76
2022/03/14 11:47:20;;;;;;;14.57;5.78;;;14.90;21.50;;;;;;4947556;28;20472;-76
2022/03/14 11:49:47;;;;;;;12.10;5.70;;;15.20;21.40;;;;;;4944220;29;20383;-78
2022/03/14 11:52:23;;;;;;;9.90;5.70;;;15.50;20.40;;;;;;4937308;28;20976;-76
2022/03/14 11:54:57;;;;;;;10.03;6.00;;;15.70;20.10;;;;;;4931210;28;20438;-77
2022/03/14 11:57:36;;;;;;;11.43;5.88;;;15.50;20.30;;;;;;4937212;28;20411;-80
2022/03/14 12:00:21;;;;;;;13.95;6.18;;;15.30;21.00;;;;;;4940033;28;20411;-77
2022/03/14 12:02:49;;;;;;;13.95;6.50;;;15.10;21.70;;;;;;4925600;28;20411;-77
2022/03/14 12:05:21;;;;;;;13.13;5.93;;;14.90;22.50;;;;;;4933448;28;20895;-77
2022/03/14 12:07:47;;;;;;;12.80;5.30;;;14.90;22.20;;;;;;4948842;28;20402;-77
2022/03/14 12:10:32;;;;;;;10.15;5.90;;;14.80;22.30;;;;;;4929843;28;20417;-77
2022/03/14 12:13:01;;;;;;;9.95;5.60;;;14.60;23.10;;;;;;4944588;29;20406;-77
2022/03/14 12:15:48;;;;;;;9.43;4.80;;;14.70;23.10;;;;;;4931436;28;20573;-77
2022/03/14 12:18:38;;;;;;;9.77;5.07;;;14.50;22.80;;;;;;4953447;28;20411;-76
2022/03/14 12:21:42;;;;;;;7.90;5.07;;;14.50;22.70;;;;;;4939254;28;21235;-79
2022/03/14 12:24:07;;;;;;;9.00;5.30;;;14.50;23.10;;;;;;4954239;28;20898;-77
2022/03/14 12:26:34;;;;;;;15.33;5.93;;;14.60;23.60;;;;;;4932036;28;20436;-78
2022/03/14 12:29:35;;;;;;;12.30;5.05;;;14.40;23.20;;;;;;4932353;28;20470;-75
2022/03/14 12:32:39;;;;;;;8.82;5.18;;;14.40;22.50;;;;;;4949316;28;20507;-77
2022/03/14 12:35:26;;;;;;;9.00;4.60;;;14.50;22.90;;;;;;4940264;28;20403;-77
2022/03/14 12:37:57;;;;;;;7.95;4.45;;;14.50;22.10;;;;;;4948651;28;20413;-76
2022/03/14 12:40:22;;;;;;;9.65;4.90;;;14.80;20.60;;;;;;4932940;28;20565;-78
2022/03/14 12:43:09;;;;;;;8.68;5.00;;;14.80;20.70;;;;;;4939819;28;20471;-77